createdAt,value
2022-10-06T00:00:21.813Z,615.00
2022-10-06T00:00:51.921Z,616.00
2022-10-06T00:01:22.099Z,616.00
2022-10-06T00:01:52.164Z,616.00
2022-10-06T00:02:22.204Z,616.00
2022-10-06T00:02:52.233Z,617.00
2022-10-06T00:03:22.222Z,618.00
2022-10-06T00:03:52.330Z,620.00
2022-10-06T00:04:22.435Z,620.00
2022-10-06T00:04:52.548Z,619.00
2022-10-06T00:05:22.654Z,620.00
2022-10-06T00:05:52.768Z,621.00
2022-10-06T00:06:22.874Z,620.00
2022-10-06T00:06:52.984Z,618.00
2022-10-06T00:07:23.091Z,616.00
2022-10-06T00:07:53.197Z,615.00
2022-10-06T00:08:23.301Z,617.00
2022-10-06T00:08:53.415Z,617.00
2022-10-06T00:09:23.523Z,617.00
2022-10-06T00:09:53.631Z,617.00
2022-10-06T00:10:23.737Z,618.00
2022-10-06T00:10:53.852Z,617.00
2022-10-06T00:11:23.990Z,616.00
2022-10-06T00:11:54.079Z,615.00
2022-10-06T00:12:24.192Z,618.00
2022-10-06T00:12:54.298Z,618.00
2022-10-06T00:13:24.410Z,617.00
2022-10-06T00:13:54.512Z,617.00
2022-10-06T00:14:24.619Z,618.00
2022-10-06T00:14:54.721Z,618.00
2022-10-06T00:15:24.847Z,617.00
2022-10-06T00:15:55.017Z,619.00
2022-10-06T00:16:25.031Z,619.00
2022-10-06T00:16:55.137Z,621.00
2022-10-06T00:17:25.243Z,620.00
2022-10-06T00:17:55.349Z,618.00
2022-10-06T00:18:25.934Z,618.00
2022-10-06T00:18:55.484Z,618.00
2022-10-06T00:19:25.591Z,620.00
2022-10-06T00:19:55.701Z,620.00
2022-10-06T00:20:25.807Z,619.00
2022-10-06T00:20:55.929Z,618.00
2022-10-06T00:21:26.040Z,620.00
2022-10-06T00:21:56.031Z,620.00
2022-10-06T00:22:26.135Z,619.00
2022-10-06T00:22:56.250Z,617.00
2022-10-06T00:23:26.364Z,614.00
2022-10-06T00:23:56.479Z,612.00
2022-10-06T00:24:26.629Z,612.00
2022-10-06T00:24:56.586Z,612.00
2022-10-06T00:25:26.698Z,613.00
2022-10-06T00:25:56.818Z,612.00
2022-10-06T00:26:26.958Z,612.00
2022-10-06T00:26:56.956Z,611.00
2022-10-06T00:27:27.042Z,611.00
2022-10-06T00:27:57.181Z,612.00
2022-10-06T00:28:27.836Z,613.00
2022-10-06T00:28:57.270Z,613.00
2022-10-06T00:29:27.385Z,614.00
2022-10-06T00:29:57.511Z,613.00
2022-10-06T00:30:27.613Z,614.00
2022-10-06T00:30:57.750Z,613.00
2022-10-06T00:31:27.798Z,613.00
2022-10-06T00:31:57.789Z,612.00
2022-10-06T00:32:27.897Z,611.00
2022-10-06T00:32:58.022Z,612.00
2022-10-06T00:33:28.121Z,611.00
2022-10-06T00:33:58.230Z,611.00
2022-10-06T00:34:28.342Z,610.00
2022-10-06T00:34:58.459Z,610.00
2022-10-06T00:35:28.596Z,610.00
2022-10-06T00:35:58.679Z,610.00
2022-10-06T00:36:28.803Z,609.00
2022-10-06T00:36:58.784Z,609.00
2022-10-06T00:37:28.890Z,610.00
2022-10-06T00:37:59.000Z,609.00
2022-10-06T00:38:29.658Z,609.00
2022-10-06T00:38:59.148Z,611.00
2022-10-06T00:39:29.252Z,613.00
2022-10-06T00:39:59.360Z,613.00
2022-10-06T00:40:29.468Z,613.00
2022-10-06T00:40:59.581Z,611.00
2022-10-06T00:41:29.723Z,611.00
2022-10-06T00:41:59.695Z,610.00
2022-10-06T00:42:29.804Z,610.00
2022-10-06T00:42:59.909Z,612.00
2022-10-06T00:43:30.046Z,612.00
2022-10-06T00:44:00.147Z,612.00
2022-10-06T00:44:30.247Z,612.00
2022-10-06T00:45:00.358Z,614.00
2022-10-06T00:45:30.467Z,613.00
2022-10-06T00:46:00.693Z,612.00
2022-10-06T00:46:30.650Z,609.00
2022-10-06T00:47:00.629Z,611.00
2022-10-06T00:47:30.736Z,610.00
2022-10-06T00:48:00.843Z,610.00
2022-10-06T00:48:31.517Z,611.00
2022-10-06T00:49:00.970Z,611.00
2022-10-06T00:49:31.080Z,610.00
2022-10-06T00:50:01.182Z,609.00
2022-10-06T00:50:31.293Z,610.00
2022-10-06T00:51:01.399Z,608.00
2022-10-06T00:51:31.520Z,606.00
2022-10-06T00:52:01.626Z,605.00
2022-10-06T00:52:31.734Z,603.00
2022-10-06T00:53:01.742Z,604.00
2022-10-06T00:53:31.777Z,605.00
2022-10-06T00:54:01.818Z,602.00
2022-10-06T00:54:31.805Z,602.00
2022-10-06T00:55:01.820Z,602.00
2022-10-06T00:55:31.842Z,602.00
2022-10-06T00:56:01.871Z,604.00
2022-10-06T00:56:31.886Z,604.00
2022-10-06T00:57:01.933Z,603.00
2022-10-06T00:57:31.929Z,602.00
2022-10-06T00:58:01.951Z,602.00
2022-10-06T00:58:32.056Z,603.00
2022-10-06T00:59:02.064Z,602.00
2022-10-06T00:59:32.088Z,601.00
2022-10-06T01:00:02.115Z,603.00
2022-10-06T01:00:32.154Z,603.00
2022-10-06T01:01:02.167Z,603.00
2022-10-06T01:01:32.239Z,601.00
2022-10-06T01:02:02.263Z,601.00
2022-10-06T01:02:32.389Z,601.00
2022-10-06T01:03:02.376Z,600.00
2022-10-06T01:03:32.413Z,599.00
2022-10-06T01:04:02.432Z,600.00
2022-10-06T01:04:32.452Z,599.00
2022-10-06T01:05:02.481Z,599.00
2022-10-06T01:05:32.497Z,597.00
2022-10-06T01:06:02.533Z,600.00
2022-10-06T01:06:32.746Z,600.00
2022-10-06T01:07:02.631Z,601.00
2022-10-06T01:07:32.654Z,603.00
2022-10-06T01:08:02.676Z,603.00
2022-10-06T01:08:32.803Z,603.00
2022-10-06T01:09:02.804Z,604.00
2022-10-06T01:09:32.815Z,605.00
2022-10-06T01:10:02.842Z,607.00
2022-10-06T01:10:32.861Z,607.00
2022-10-06T01:11:02.874Z,608.00
2022-10-06T01:11:32.911Z,609.00
2022-10-06T01:12:02.936Z,608.00
2022-10-06T01:12:33.022Z,607.00
2022-10-06T01:13:02.994Z,609.00
2022-10-06T01:13:33.020Z,612.00
2022-10-06T01:14:03.037Z,611.00
2022-10-06T01:14:33.058Z,610.00
2022-10-06T01:15:03.078Z,608.00
2022-10-06T01:15:33.105Z,609.00
2022-10-06T01:16:03.194Z,607.00
2022-10-06T01:16:33.221Z,607.00
2022-10-06T01:17:03.325Z,608.00
2022-10-06T01:17:33.319Z,607.00
2022-10-06T01:18:03.342Z,605.00
2022-10-06T01:18:33.361Z,605.00
2022-10-06T01:19:03.377Z,607.00
2022-10-06T01:19:33.399Z,608.00
2022-10-06T01:20:03.414Z,608.00
2022-10-06T01:20:33.439Z,606.00
2022-10-06T01:21:03.475Z,607.00
2022-10-06T01:21:33.497Z,608.00
2022-10-06T01:22:03.519Z,607.00
2022-10-06T01:22:33.538Z,605.00
2022-10-06T01:23:03.560Z,607.00
2022-10-06T01:23:33.578Z,605.00
2022-10-06T01:24:03.611Z,603.00
2022-10-06T01:24:33.640Z,605.00
2022-10-06T01:25:03.657Z,603.00
2022-10-06T01:25:33.679Z,601.00
2022-10-06T01:26:03.729Z,602.00
2022-10-06T01:26:33.721Z,600.00
2022-10-06T01:27:03.756Z,600.00
2022-10-06T01:27:33.773Z,601.00
2022-10-06T01:28:03.937Z,600.00
2022-10-06T01:28:34.269Z,600.00
2022-10-06T01:29:03.893Z,599.00
2022-10-06T01:29:33.919Z,597.00
2022-10-06T01:30:03.939Z,597.00
2022-10-06T01:30:33.959Z,599.00
2022-10-06T01:31:04.023Z,600.00
2022-10-06T01:31:34.101Z,601.00
2022-10-06T01:32:04.119Z,600.00
2022-10-06T01:32:34.147Z,600.00
2022-10-06T01:33:04.154Z,601.00
2022-10-06T01:33:34.171Z,602.00
2022-10-06T01:34:04.191Z,603.00
2022-10-06T01:34:34.210Z,604.00
2022-10-06T01:35:04.229Z,603.00
2022-10-06T01:35:34.248Z,602.00
2022-10-06T01:36:04.270Z,602.00
2022-10-06T01:36:34.294Z,601.00
2022-10-06T01:37:04.308Z,601.00
2022-10-06T01:37:34.329Z,599.00
2022-10-06T01:38:04.342Z,597.00
2022-10-06T01:38:34.364Z,599.00
2022-10-06T01:39:04.385Z,597.00
2022-10-06T01:39:34.413Z,596.00
2022-10-06T01:40:04.443Z,594.00
2022-10-06T01:40:34.458Z,593.00
2022-10-06T01:41:04.479Z,594.00
2022-10-06T01:41:34.501Z,591.00
2022-10-06T01:42:04.530Z,592.00
2022-10-06T01:42:34.541Z,592.00
2022-10-06T01:43:04.656Z,593.00
2022-10-06T01:43:34.777Z,592.00
2022-10-06T01:44:04.871Z,591.00
2022-10-06T01:44:34.978Z,591.00
2022-10-06T01:45:05.089Z,593.00
2022-10-06T01:45:35.208Z,593.00
2022-10-06T01:46:05.290Z,593.00
2022-10-06T01:46:35.292Z,594.00
2022-10-06T01:47:05.260Z,593.00
2022-10-06T01:47:35.376Z,595.00
2022-10-06T01:48:05.491Z,595.00
2022-10-06T01:48:35.600Z,595.00
2022-10-06T01:49:05.704Z,595.00
2022-10-06T01:49:35.811Z,594.00
2022-10-06T01:50:05.937Z,594.00
2022-10-06T01:50:36.036Z,594.00
2022-10-06T01:51:06.149Z,595.00
2022-10-06T01:51:36.257Z,594.00
2022-10-06T01:52:06.364Z,595.00
2022-10-06T01:52:36.479Z,596.00
2022-10-06T01:53:06.505Z,597.00
2022-10-06T01:53:36.526Z,597.00
2022-10-06T01:54:06.556Z,597.00
2022-10-06T01:54:36.564Z,597.00
2022-10-06T01:55:06.598Z,596.00
2022-10-06T01:55:36.615Z,593.00
2022-10-06T01:56:06.636Z,592.00
2022-10-06T01:56:36.667Z,591.00
2022-10-06T01:57:06.701Z,586.00
2022-10-06T01:57:36.722Z,588.00
2022-10-06T01:58:06.748Z,590.00
2022-10-06T01:58:36.785Z,589.00
2022-10-06T01:59:06.797Z,588.00
2022-10-06T01:59:36.798Z,588.00
2022-10-06T02:00:06.836Z,588.00
2022-10-06T02:00:36.853Z,589.00
2022-10-06T02:01:06.875Z,589.00
2022-10-06T02:01:36.959Z,589.00
2022-10-06T02:02:06.970Z,589.00
2022-10-06T02:02:36.973Z,589.00
2022-10-06T02:03:07.025Z,590.00
2022-10-06T02:03:37.033Z,590.00
2022-10-06T02:04:07.138Z,591.00
2022-10-06T02:04:37.154Z,591.00
2022-10-06T02:05:07.189Z,590.00
2022-10-06T02:05:37.225Z,590.00
2022-10-06T02:06:07.281Z,591.00
2022-10-06T02:06:37.334Z,591.00
2022-10-06T02:07:07.346Z,591.00
2022-10-06T02:07:37.369Z,592.00
2022-10-06T02:08:07.391Z,590.00
2022-10-06T02:08:37.410Z,588.00
2022-10-06T02:09:07.433Z,588.00
2022-10-06T02:09:37.458Z,588.00
2022-10-06T02:10:07.492Z,586.00
2022-10-06T02:10:37.497Z,585.00
2022-10-06T02:11:07.529Z,585.00
2022-10-06T02:11:37.565Z,585.00
2022-10-06T02:12:07.587Z,584.00
2022-10-06T02:12:37.601Z,586.00
2022-10-06T02:13:07.638Z,585.00
2022-10-06T02:13:37.639Z,584.00
2022-10-06T02:14:07.678Z,587.00
2022-10-06T02:14:37.678Z,588.00
2022-10-06T02:15:07.695Z,590.00
2022-10-06T02:15:37.737Z,591.00
2022-10-06T02:16:07.798Z,591.00
2022-10-06T02:16:37.858Z,593.00
2022-10-06T02:17:07.885Z,595.00
2022-10-06T02:17:37.898Z,595.00
2022-10-06T02:18:07.974Z,594.00
2022-10-06T02:18:37.997Z,596.00
2022-10-06T02:19:08.018Z,595.00
2022-10-06T02:19:38.046Z,596.00
2022-10-06T02:20:08.062Z,595.00
2022-10-06T02:20:38.081Z,594.00
2022-10-06T02:21:08.243Z,595.00
2022-10-06T02:21:38.257Z,595.00
2022-10-06T02:22:08.275Z,594.00
2022-10-06T02:22:38.301Z,591.00
2022-10-06T02:23:08.310Z,587.00
2022-10-06T02:23:38.328Z,586.00
2022-10-06T02:24:08.353Z,589.00
2022-10-06T02:24:38.381Z,590.00
2022-10-06T02:25:08.410Z,590.00
2022-10-06T02:27:35.767Z,619.00
2022-10-06T02:28:05.945Z,611.00
2022-10-06T02:28:35.948Z,608.00
2022-10-06T02:29:05.907Z,605.00
2022-10-06T02:29:36.119Z,605.00
2022-10-06T02:30:06.024Z,605.00
2022-10-06T02:30:36.091Z,604.00
2022-10-06T02:31:06.215Z,602.00
2022-10-06T02:31:36.312Z,600.00
2022-10-06T02:32:06.384Z,599.00
2022-10-06T02:32:36.471Z,600.00
2022-10-06T02:33:06.528Z,599.00
2022-10-06T02:33:36.596Z,598.00
2022-10-06T02:34:06.665Z,599.00
2022-10-06T02:34:36.728Z,597.00
2022-10-06T02:35:06.794Z,597.00
2022-10-06T02:35:36.862Z,596.00
2022-10-06T02:36:06.952Z,596.00
2022-10-06T02:36:37.019Z,596.00
2022-10-06T02:37:07.109Z,596.00
2022-10-06T02:37:37.212Z,596.00
2022-10-06T02:38:07.335Z,595.00
2022-10-06T02:38:37.324Z,595.00
2022-10-06T02:39:07.449Z,594.00
2022-10-06T02:39:37.547Z,596.00
2022-10-06T02:40:07.650Z,596.00
2022-10-06T02:40:37.752Z,597.00
2022-10-06T02:41:07.871Z,596.00
2022-10-06T02:41:37.986Z,597.00
2022-10-06T02:42:08.085Z,596.00
2022-10-06T02:42:38.199Z,595.00
2022-10-06T02:43:08.298Z,595.00
2022-10-06T02:43:38.409Z,593.00
2022-10-06T02:44:08.523Z,593.00
2022-10-06T02:44:38.626Z,593.00
2022-10-06T02:45:08.757Z,591.00
2022-10-06T02:45:38.850Z,591.00
2022-10-06T02:46:09.032Z,591.00
2022-10-06T02:46:39.237Z,588.00
2022-10-06T02:47:09.096Z,590.00
2022-10-06T02:47:39.199Z,591.00
2022-10-06T02:48:09.304Z,592.00
2022-10-06T02:48:39.411Z,592.00
2022-10-06T02:49:09.521Z,592.00
2022-10-06T02:49:39.629Z,592.00
2022-10-06T02:50:09.740Z,593.00
2022-10-06T02:50:39.847Z,593.00
2022-10-06T02:51:09.959Z,593.00
2022-10-06T02:51:40.110Z,592.00
2022-10-06T02:52:10.082Z,592.00
2022-10-06T02:52:40.192Z,592.00
2022-10-06T02:53:10.317Z,591.00
2022-10-06T02:53:40.406Z,591.00
2022-10-06T02:54:10.511Z,591.00
2022-10-06T02:54:40.622Z,590.00
2022-10-06T02:55:10.730Z,591.00
2022-10-06T02:55:40.835Z,592.00
2022-10-06T02:56:10.939Z,593.00
2022-10-06T02:56:41.062Z,593.00
2022-10-06T02:57:11.169Z,593.00
2022-10-06T02:57:41.275Z,594.00
2022-10-06T02:58:11.382Z,594.00
2022-10-06T02:58:41.491Z,594.00
2022-10-06T02:59:11.595Z,593.00
2022-10-06T02:59:41.715Z,594.00
2022-10-06T03:00:11.830Z,594.00
2022-10-06T03:00:41.940Z,595.00
2022-10-06T03:01:12.027Z,594.00
2022-10-06T03:01:42.258Z,594.00
2022-10-06T03:02:12.278Z,595.00
2022-10-06T03:02:42.317Z,597.00
2022-10-06T03:03:12.227Z,595.00
2022-10-06T03:03:42.339Z,594.00
2022-10-06T03:04:12.445Z,594.00
2022-10-06T03:04:42.550Z,595.00
2022-10-06T03:05:12.664Z,596.00
2022-10-06T03:05:42.770Z,595.00
2022-10-06T03:06:12.877Z,595.00
2022-10-06T03:06:43.011Z,594.00
2022-10-06T03:07:12.989Z,594.00
2022-10-06T03:07:43.100Z,595.00
2022-10-06T03:08:13.203Z,595.00
2022-10-06T03:08:43.307Z,594.00
2022-10-06T03:09:13.419Z,594.00
2022-10-06T03:09:43.541Z,594.00
2022-10-06T03:10:13.628Z,596.00
2022-10-06T03:10:43.732Z,595.00
2022-10-06T03:11:13.845Z,594.00
2022-10-06T03:11:43.965Z,594.00
2022-10-06T03:12:14.081Z,593.00
2022-10-06T03:12:44.178Z,594.00
2022-10-06T03:13:14.292Z,593.00
2022-10-06T03:13:44.400Z,592.00
2022-10-06T03:14:19.127Z,591.00
2022-10-06T03:14:44.515Z,590.00
2022-10-06T03:15:14.647Z,589.00
2022-10-06T03:15:44.820Z,590.00
2022-10-06T03:16:14.923Z,590.00
2022-10-06T03:16:44.891Z,589.00
2022-10-06T03:17:14.873Z,589.00
2022-10-06T03:17:44.981Z,590.00
2022-10-06T03:18:15.092Z,591.00
2022-10-06T03:18:45.202Z,591.00
2022-10-06T03:19:15.311Z,591.00
2022-10-06T03:19:45.421Z,591.00
2022-10-06T03:20:15.524Z,590.00
2022-10-06T03:20:45.630Z,591.00
2022-10-06T03:21:15.737Z,588.00
2022-10-06T03:21:45.860Z,589.00
2022-10-06T03:22:15.969Z,590.00
2022-10-06T03:22:46.077Z,591.00
2022-10-06T03:23:16.175Z,590.00
2022-10-06T03:23:46.296Z,588.00
2022-10-06T03:24:16.412Z,589.00
2022-10-06T03:24:46.506Z,587.00
2022-10-06T03:25:16.616Z,588.00
2022-10-06T03:25:46.722Z,588.00
2022-10-06T03:26:16.839Z,588.00
2022-10-06T03:26:46.962Z,588.00
2022-10-06T03:27:17.047Z,588.00
2022-10-06T03:27:47.119Z,588.00
2022-10-06T03:28:17.286Z,590.00
2022-10-06T03:28:47.328Z,590.00
2022-10-06T03:29:17.294Z,589.00
2022-10-06T03:29:47.367Z,589.00
2022-10-06T03:30:17.465Z,591.00
2022-10-06T03:30:47.507Z,589.00
2022-10-06T03:31:17.643Z,590.00
2022-10-06T03:31:47.786Z,590.00
2022-10-06T03:32:17.726Z,588.00
2022-10-06T03:32:47.794Z,590.00
2022-10-06T03:33:17.867Z,590.00
2022-10-06T03:33:47.937Z,590.00
2022-10-06T03:34:18.021Z,591.00
2022-10-06T03:34:48.079Z,592.00
2022-10-06T03:35:18.184Z,592.00
2022-10-06T03:35:48.262Z,592.00
2022-10-06T03:36:18.313Z,592.00
2022-10-06T03:36:48.390Z,592.00
2022-10-06T03:37:18.480Z,591.00
2022-10-06T03:37:48.579Z,588.00
2022-10-06T03:38:18.687Z,586.00
2022-10-06T03:38:48.801Z,586.00
2022-10-06T03:39:18.912Z,589.00
2022-10-06T03:39:49.040Z,588.00
2022-10-06T03:40:19.130Z,586.00
2022-10-06T03:40:49.234Z,587.00
2022-10-06T03:41:19.350Z,587.00
2022-10-06T03:41:49.474Z,588.00
2022-10-06T03:42:19.568Z,588.00
2022-10-06T03:42:49.678Z,588.00
2022-10-06T03:43:19.785Z,587.00
2022-10-06T03:43:49.896Z,588.00
2022-10-06T03:44:20.007Z,587.00
2022-10-06T03:44:50.111Z,588.00
2022-10-06T03:45:20.254Z,589.00
2022-10-06T03:45:50.342Z,588.00
2022-10-06T03:46:20.509Z,589.00
2022-10-06T03:46:50.513Z,588.00
2022-10-06T03:47:20.483Z,586.00
2022-10-06T03:47:50.588Z,585.00
2022-10-06T03:48:20.697Z,583.00
2022-10-06T03:48:50.809Z,582.00
2022-10-06T03:49:20.919Z,581.00
2022-10-06T03:49:51.030Z,579.00
2022-10-06T03:50:21.143Z,579.00
2022-10-06T03:50:51.256Z,579.00
2022-10-06T03:51:21.372Z,578.00
2022-10-06T03:51:51.491Z,579.00
2022-10-06T03:52:25.914Z,579.00
2022-10-06T03:52:51.591Z,577.00
2022-10-06T03:53:21.708Z,578.00
2022-10-06T03:53:51.814Z,576.00
2022-10-06T03:54:21.920Z,577.00
2022-10-06T03:54:52.029Z,580.00
2022-10-06T03:55:22.144Z,580.00
2022-10-06T03:55:52.252Z,578.00
2022-10-06T03:56:22.358Z,578.00
2022-10-06T03:56:52.499Z,576.00
2022-10-06T03:57:22.490Z,575.00
2022-10-06T03:57:52.591Z,580.00
2022-10-06T03:58:22.699Z,581.00
2022-10-06T03:58:52.804Z,586.00
2022-10-06T03:59:22.921Z,588.00
2022-10-06T03:59:53.026Z,586.00
2022-10-06T04:00:23.154Z,583.00
2022-10-06T04:00:53.287Z,582.00
2022-10-06T04:01:26.135Z,579.00
2022-10-06T04:01:53.432Z,580.00
2022-10-06T04:02:23.543Z,580.00
2022-10-06T04:02:53.534Z,579.00
2022-10-06T04:03:23.641Z,581.00
2022-10-06T04:03:53.752Z,582.00
2022-10-06T04:04:23.864Z,582.00
2022-10-06T04:04:53.991Z,583.00
2022-10-06T04:05:24.092Z,581.00
2022-10-06T04:05:54.195Z,584.00
2022-10-06T04:06:24.309Z,579.00
2022-10-06T04:06:54.419Z,585.00
2022-10-06T04:07:24.526Z,584.00
2022-10-06T04:07:54.645Z,584.00
2022-10-06T04:08:24.747Z,584.00
2022-10-06T04:08:54.860Z,584.00
2022-10-06T04:09:24.969Z,579.00
2022-10-06T04:09:55.078Z,579.00
2022-10-06T04:10:25.183Z,579.00
2022-10-06T04:10:55.290Z,578.00
2022-10-06T04:11:25.400Z,575.00
2022-10-06T04:11:55.541Z,573.00
2022-10-06T04:12:25.526Z,572.00
2022-10-06T04:12:55.648Z,575.00
2022-10-06T04:13:25.757Z,577.00
2022-10-06T04:13:55.866Z,579.00
2022-10-06T04:14:25.973Z,582.00
2022-10-06T04:14:59.939Z,579.00
2022-10-06T04:15:26.207Z,580.00
2022-10-06T04:15:56.321Z,576.00
2022-10-06T04:16:26.494Z,576.00
2022-10-06T04:16:56.499Z,577.00
2022-10-06T04:17:27.389Z,577.00
2022-10-06T04:17:56.530Z,573.00
2022-10-06T04:18:27.181Z,558.00
2022-10-06T04:18:56.675Z,548.00
2022-10-06T04:19:26.801Z,559.00
2022-10-06T04:19:56.901Z,559.00
2022-10-06T04:20:26.887Z,557.00
2022-10-06T04:20:57.008Z,559.00
2022-10-06T04:21:27.107Z,560.00
2022-10-06T04:21:57.237Z,561.00
2022-10-06T04:22:27.221Z,565.00
2022-10-06T04:22:57.333Z,564.00
2022-10-06T04:23:27.435Z,565.00
2022-10-06T04:23:57.543Z,567.00
2022-10-06T04:24:27.654Z,568.00
2022-10-06T04:24:57.760Z,566.00
2022-10-06T04:25:27.880Z,562.00
2022-10-06T04:25:57.983Z,565.00
2022-10-06T04:26:28.084Z,561.00
2022-10-06T04:26:58.207Z,559.00
2022-10-06T04:27:28.282Z,562.00
2022-10-06T04:27:58.400Z,562.00
2022-10-06T04:28:28.999Z,562.00
2022-10-06T04:28:58.464Z,564.00
2022-10-06T04:29:28.536Z,564.00
2022-10-06T04:29:58.610Z,566.00
2022-10-06T04:30:28.701Z,567.00
2022-10-06T04:30:58.749Z,568.00
2022-10-06T04:31:28.894Z,567.00
2022-10-06T04:31:58.944Z,569.00
2022-10-06T04:32:28.928Z,567.00
2022-10-06T04:32:58.997Z,567.00
2022-10-06T04:33:29.058Z,568.00
2022-10-06T04:33:59.124Z,567.00
2022-10-06T04:34:29.199Z,570.00
2022-10-06T04:34:59.270Z,571.00
2022-10-06T04:35:29.353Z,571.00
2022-10-06T04:35:59.410Z,574.00
2022-10-06T04:36:29.487Z,575.00
2022-10-06T04:36:59.582Z,575.00
2022-10-06T04:37:29.560Z,576.00
2022-10-06T04:37:59.662Z,574.00
2022-10-06T04:38:30.162Z,577.00
2022-10-06T04:38:59.849Z,580.00
2022-10-06T04:39:29.961Z,581.00
2022-10-06T04:40:00.081Z,579.00
2022-10-06T04:40:30.201Z,578.00
2022-10-06T04:41:00.221Z,579.00
2022-10-06T04:41:30.184Z,580.00
2022-10-06T04:42:00.312Z,575.00
2022-10-06T04:42:34.849Z,577.00
2022-10-06T04:43:00.295Z,582.00
2022-10-06T04:43:30.405Z,583.00
2022-10-06T04:44:00.516Z,583.00
2022-10-06T04:44:30.626Z,585.00
2022-10-06T04:45:00.745Z,584.00
2022-10-06T04:45:30.930Z,584.00
2022-10-06T04:46:13.071Z,583.00
2022-10-06T04:46:42.696Z,580.00
2022-10-06T04:47:00.980Z,581.00
2022-10-06T04:47:31.012Z,583.00
2022-10-06T04:48:01.123Z,581.00
2022-10-06T04:48:31.640Z,581.00
2022-10-06T04:49:01.286Z,581.00
2022-10-06T04:49:31.405Z,581.00
2022-10-06T04:50:01.506Z,581.00
2022-10-06T04:50:31.629Z,582.00
2022-10-06T04:51:01.619Z,583.00
2022-10-06T04:51:31.755Z,583.00
2022-10-06T04:52:01.747Z,586.00
2022-10-06T04:52:31.757Z,583.00
2022-10-06T04:53:01.742Z,583.00
2022-10-06T04:53:31.889Z,586.00
2022-10-06T04:54:01.895Z,582.00
2022-10-06T04:54:33.859Z,584.00
2022-10-06T04:55:02.167Z,585.00
2022-10-06T04:55:32.276Z,583.00
2022-10-06T04:56:02.271Z,583.00
2022-10-06T04:56:32.250Z,584.00
2022-10-06T04:57:02.368Z,584.00
2022-10-06T04:57:32.493Z,586.00
2022-10-06T04:58:02.617Z,586.00
2022-10-06T04:58:32.898Z,587.00
2022-10-06T04:59:02.744Z,588.00
2022-10-06T04:59:32.848Z,589.00
2022-10-06T05:00:07.826Z,592.00
2022-10-06T05:00:32.998Z,593.00
2022-10-06T05:01:02.995Z,593.00
2022-10-06T05:01:33.104Z,598.00
2022-10-06T05:02:03.271Z,602.00
2022-10-06T05:02:33.278Z,603.00
2022-10-06T05:03:03.249Z,605.00
2022-10-06T05:03:33.354Z,610.00
2022-10-06T05:04:03.469Z,608.00
2022-10-06T05:04:33.577Z,605.00
2022-10-06T05:05:03.680Z,605.00
2022-10-06T05:05:33.793Z,605.00
2022-10-06T05:06:03.890Z,602.00
2022-10-06T05:06:34.004Z,603.00
2022-10-06T05:07:04.135Z,601.00
2022-10-06T05:07:34.108Z,601.00
2022-10-06T05:08:04.223Z,603.00
2022-10-06T05:08:34.329Z,605.00
2022-10-06T05:09:04.334Z,605.00
2022-10-06T05:09:34.440Z,606.00
2022-10-06T05:10:04.561Z,605.00
2022-10-06T05:10:34.647Z,603.00
2022-10-06T05:11:04.773Z,605.00
2022-10-06T05:11:34.765Z,603.00
2022-10-06T05:12:04.898Z,602.00
2022-10-06T05:12:34.883Z,604.00
2022-10-06T05:13:04.986Z,603.00
2022-10-06T05:13:35.091Z,604.00
2022-10-06T05:14:05.207Z,602.00
2022-10-06T05:14:35.310Z,604.00
2022-10-06T05:15:05.426Z,603.00
2022-10-06T05:15:35.534Z,605.00
2022-10-06T05:16:05.692Z,605.00
2022-10-06T05:16:35.829Z,605.00
2022-10-06T05:17:05.707Z,607.00
2022-10-06T05:17:35.818Z,609.00
2022-10-06T05:18:05.922Z,609.00
2022-10-06T05:18:36.032Z,613.00
2022-10-06T05:19:06.182Z,612.00
2022-10-06T05:19:36.259Z,610.00
2022-10-06T05:20:06.395Z,612.00
2022-10-06T05:20:36.524Z,613.00
2022-10-06T05:21:06.965Z,615.00
2022-10-06T05:21:36.715Z,614.00
2022-10-06T05:22:06.807Z,613.00
2022-10-06T05:22:36.924Z,612.00
2022-10-06T05:23:07.050Z,615.00
2022-10-06T05:23:37.020Z,615.00
2022-10-06T05:24:07.132Z,616.00
2022-10-06T05:24:37.269Z,617.00
2022-10-06T05:25:07.352Z,617.00
2022-10-06T05:25:37.469Z,614.00
2022-10-06T05:26:07.575Z,615.00
2022-10-06T05:26:37.702Z,617.00
2022-10-06T05:27:07.802Z,615.00
2022-10-06T05:27:37.874Z,619.00
2022-10-06T05:28:08.018Z,622.00
2022-10-06T05:28:38.007Z,627.00
2022-10-06T05:29:08.042Z,626.00
2022-10-06T05:29:38.108Z,628.00
2022-10-06T05:30:08.209Z,624.00
2022-10-06T05:30:38.288Z,623.00
2022-10-06T05:31:08.382Z,624.00
2022-10-06T05:31:38.570Z,620.00
2022-10-06T05:32:08.628Z,619.00
2022-10-06T05:32:38.578Z,619.00
2022-10-06T05:33:08.663Z,621.00
2022-10-06T05:33:38.715Z,619.00
2022-10-06T05:34:08.784Z,621.00
2022-10-06T05:34:38.849Z,621.00
2022-10-06T05:35:08.934Z,622.00
2022-10-06T05:35:39.010Z,624.00
2022-10-06T05:36:09.064Z,625.00
2022-10-06T05:36:39.153Z,624.00
2022-10-06T05:37:09.242Z,625.00
2022-10-06T05:37:39.348Z,625.00
2022-10-06T05:38:09.457Z,626.00
2022-10-06T05:38:39.566Z,625.00
2022-10-06T05:39:09.677Z,624.00
2022-10-06T05:39:39.785Z,622.00
2022-10-06T05:40:09.895Z,619.00
2022-10-06T05:40:40.002Z,620.00
2022-10-06T05:41:10.111Z,624.00
2022-10-06T05:41:40.227Z,624.00
2022-10-06T05:42:10.340Z,623.00
2022-10-06T05:42:40.412Z,622.00
2022-10-06T05:43:10.377Z,626.00
2022-10-06T05:43:40.483Z,630.00
2022-10-06T05:44:10.470Z,630.00
2022-10-06T05:44:40.589Z,627.00
2022-10-06T05:45:10.702Z,632.00
2022-10-06T05:45:40.835Z,630.00
2022-10-06T05:46:10.994Z,632.00
2022-10-06T05:46:40.990Z,635.00
2022-10-06T05:47:11.128Z,636.00
2022-10-06T05:47:41.092Z,634.00
2022-10-06T05:48:11.209Z,634.00
2022-10-06T05:48:41.313Z,636.00
2022-10-06T05:49:11.456Z,635.00
2022-10-06T05:49:41.565Z,638.00
2022-10-06T05:50:11.583Z,636.00
2022-10-06T05:50:41.670Z,634.00
2022-10-06T05:51:11.784Z,634.00
2022-10-06T05:51:41.910Z,638.00
2022-10-06T05:52:12.057Z,639.00
2022-10-06T05:52:42.031Z,638.00
2022-10-06T05:53:12.060Z,638.00
2022-10-06T05:53:42.173Z,640.00
2022-10-06T05:54:12.344Z,638.00
2022-10-06T05:54:42.319Z,640.00
2022-10-06T05:55:12.383Z,640.00
2022-10-06T05:55:42.379Z,640.00
2022-10-06T05:56:12.489Z,639.00
2022-10-06T05:56:42.662Z,640.00
2022-10-06T05:57:12.705Z,641.00
2022-10-06T05:57:42.768Z,638.00
2022-10-06T05:58:17.799Z,639.00
2022-10-06T05:58:42.798Z,639.00
2022-10-06T05:59:15.382Z,635.00
2022-10-06T05:59:42.855Z,632.00
2022-10-06T06:00:12.927Z,630.00
2022-10-06T06:00:42.962Z,633.00
2022-10-06T06:01:12.986Z,633.00
2022-10-06T06:01:43.038Z,631.00
2022-10-06T06:02:13.179Z,629.00
2022-10-06T06:02:44.984Z,627.00
2022-10-06T06:03:13.187Z,626.00
2022-10-06T06:03:43.225Z,622.00
2022-10-06T06:04:13.284Z,621.00
2022-10-06T06:04:43.309Z,622.00
2022-10-06T06:05:13.445Z,623.00
2022-10-06T06:05:43.448Z,621.00
2022-10-06T06:06:13.462Z,621.00
2022-10-06T06:06:43.573Z,621.00
2022-10-06T06:07:13.547Z,618.00
2022-10-06T06:07:43.653Z,620.00
2022-10-06T06:08:13.760Z,619.00
2022-10-06T06:08:43.877Z,619.00
2022-10-06T06:09:13.982Z,618.00
2022-10-06T06:09:44.095Z,620.00
2022-10-06T06:10:14.197Z,619.00
2022-10-06T06:10:44.307Z,620.00
2022-10-06T06:11:14.410Z,619.00
2022-10-06T06:11:44.559Z,619.00
2022-10-06T06:12:14.546Z,619.00
2022-10-06T06:12:44.644Z,619.00
2022-10-06T06:13:14.761Z,618.00
2022-10-06T06:13:44.871Z,617.00
2022-10-06T06:14:15.009Z,617.00
2022-10-06T06:14:45.100Z,617.00
2022-10-06T06:15:15.216Z,616.00
2022-10-06T06:15:45.312Z,613.00
2022-10-06T06:16:15.469Z,615.00
2022-10-06T06:16:45.643Z,616.00
2022-10-06T06:17:15.569Z,616.00